Terminal Aerodrome Forecast
Issued by NWS Sterling, VA

Current Version | Previous Version | Text Only | Print | Product List | Glossary Off
Versions: 1 2 3 4 5 6 7 8 9 10 11 12 13 14 15 16 17 18 19 20 21 22 23 24 25 26 27

028
FTUS41 KLWX 252240 AAD
TAFDCA
TAF AMD
KDCA 252240Z 2523/2618 22010G17KT P6SM VCTS BKN060CB
     FM260300 25005KT P6SM BKN060
     FM261300 32005KT P6SM BKN120=

USA.gov is the U.S. government's official web portal to all federal, state and local government web resources and services.